Terminal Aerodrome Forecast
Issued by NWS Sioux Falls, SD

Home | Current Version | Previous Version | Graphics & Text | Print | Product List | Glossary Off
Versions: 1 2 3 4 5 6 7 8 9 10 11 12 13 14 15

000
FTUS43 KFSD 180540
TAFHON
TAF
KHON 180540Z 1806/1906 14010G18KT P6SM BKN250 WS020/17040KT
     FM180800 VRB13G25KT P6SM -SHRA SCT040 OVC100
     FM181100 11022G31KT P6SM -SHRA OVC090
     FM181400 17010KT P6SM SCT100 BKN200
     FM182200 19009KT P6SM VCTS SCT040CB BKN090
     FM190100 17007KT P6SM -TSRA SCT025 OVC045CB
     FM190300 01012KT P6SM SHRA OVC040=

USA.gov is the U.S. government's official web portal to all federal, state and local government web resources and services.